sensor_id;sensor_type;location;lat;lon;timestamp;P1;durP1;ratioP1;P2;durP2;ratioP2
75005;SDS011;63553;51.814;4.600;2022-10-31T00:02:00;6.40;;;3.90;;
75005;SDS011;63553;51.814;4.600;2022-10-31T00:04:25;5.93;;;3.55;;
75005;SDS011;63553;51.814;4.600;2022-10-31T00:06:50;5.23;;;3.57;;
75005;SDS011;63553;51.814;4.600;2022-10-31T00:09:15;7.67;;;3.83;;
75005;SDS011;63553;51.814;4.600;2022-10-31T00:11:41;7.67;;;3.97;;
75005;SDS011;63553;51.814;4.600;2022-10-31T00:14:06;7.20;;;4.03;;
75005;SDS011;63553;51.814;4.600;2022-10-31T00:16:31;5.32;;;3.92;;
75005;SDS011;63553;51.814;4.600;2022-10-31T00:18:58;5.35;;;3.58;;
75005;SDS011;63553;51.814;4.600;2022-10-31T00:21:26;6.90;;;3.88;;
75005;SDS011;63553;51.814;4.600;2022-10-31T00:23:52;6.50;;;3.65;;
75005;SDS011;63553;51.814;4.600;2022-10-31T00:26:17;4.10;;;3.40;;
75005;SDS011;63553;51.814;4.600;2022-10-31T00:28:43;3.60;;;3.30;;
75005;SDS011;63553;51.814;4.600;2022-10-31T00:31:09;5.70;;;3.97;;
75005;SDS011;63553;51.814;4.600;2022-10-31T00:33:36;3.78;;;3.28;;
75005;SDS011;63553;51.814;4.600;2022-10-31T00:36:03;4.30;;;3.33;;
75005;SDS011;63553;51.814;4.600;2022-10-31T00:38:30;4.03;;;3.63;;
75005;SDS011;63553;51.814;4.600;2022-10-31T00:40:55;4.35;;;3.33;;
75005;SDS011;63553;51.814;4.600;2022-10-31T00:43:21;5.03;;;4.13;;
75005;SDS011;63553;51.814;4.600;2022-10-31T00:45:46;5.20;;;3.90;;
75005;SDS011;63553;51.814;4.600;2022-10-31T00:48:11;7.07;;;3.70;;
75005;SDS011;63553;51.814;4.600;2022-10-31T00:50:37;4.90;;;3.35;;
75005;SDS011;63553;51.814;4.600;2022-10-31T00:53:03;6.55;;;4.05;;
75005;SDS011;63553;51.814;4.600;2022-10-31T00:55:29;6.23;;;3.87;;
75005;SDS011;63553;51.814;4.600;2022-10-31T00:57:54;5.65;;;4.15;;
75005;SDS011;63553;51.814;4.600;2022-10-31T01:00:19;5.80;;;4.07;;
75005;SDS011;63553;51.814;4.600;2022-10-31T01:02:45;6.93;;;4.15;;
75005;SDS011;63553;51.814;4.600;2022-10-31T01:05:10;7.80;;;4.20;;
75005;SDS011;63553;51.814;4.600;2022-10-31T01:07:36;5.30;;;4.10;;
75005;SDS011;63553;51.814;4.600;2022-10-31T01:10:03;8.85;;;3.90;;
75005;SDS011;63553;51.814;4.600;2022-10-31T01:12:29;8.63;;;4.10;;
75005;SDS011;63553;51.814;4.600;2022-10-31T01:14:54;5.47;;;4.07;;
75005;SDS011;63553;51.814;4.600;2022-10-31T01:17:20;8.05;;;4.43;;
75005;SDS011;63553;51.814;4.600;2022-10-31T01:19:45;5.40;;;4.13;;
75005;SDS011;63553;51.814;4.600;2022-10-31T01:22:10;7.07;;;4.43;;
75005;SDS011;63553;51.814;4.600;2022-10-31T01:24:36;6.53;;;4.40;;
75005;SDS011;63553;51.814;4.600;2022-10-31T01:27:01;8.37;;;4.57;;
75005;SDS011;63553;51.814;4.600;2022-10-31T01:29:27;7.07;;;4.82;;
75005;SDS011;63553;51.814;4.600;2022-10-31T01:31:52;7.17;;;4.70;;
75005;SDS011;63553;51.814;4.600;2022-10-31T01:34:17;7.63;;;4.20;;
75005;SDS011;63553;51.814;4.600;2022-10-31T01:36:44;5.80;;;3.77;;
75005;SDS011;63553;51.814;4.600;2022-10-31T01:39:12;6.00;;;4.38;;
75005;SDS011;63553;51.814;4.600;2022-10-31T01:41:39;10.10;;;4.93;;
75005;SDS011;63553;51.814;4.600;2022-10-31T01:46:39;7.40;;;5.15;;
75005;SDS011;63553;51.814;4.600;2022-10-31T01:49:14;8.05;;;4.75;;
75005;SDS011;63553;51.814;4.600;2022-10-31T01:51:47;5.60;;;4.47;;
75005;SDS011;63553;51.814;4.600;2022-10-31T01:54:18;6.95;;;4.35;;
75005;SDS011;63553;51.814;4.600;2022-10-31T01:56:48;5.30;;;3.95;;
75005;SDS011;63553;51.814;4.600;2022-10-31T01:59:17;6.03;;;4.50;;
75005;SDS011;63553;51.814;4.600;2022-10-31T02:01:46;5.90;;;4.38;;
75005;SDS011;63553;51.814;4.600;2022-10-31T02:04:12;9.43;;;5.28;;
75005;SDS011;63553;51.814;4.600;2022-10-31T02:06:46;8.75;;;5.53;;
75005;SDS011;63553;51.814;4.600;2022-10-31T02:09:16;9.68;;;5.47;;
75005;SDS011;63553;51.814;4.600;2022-10-31T02:11:42;7.18;;;4.70;;
75005;SDS011;63553;51.814;4.600;2022-10-31T02:14:09;10.15;;;5.53;;
75005;SDS011;63553;51.814;4.600;2022-10-31T02:16:35;7.65;;;5.18;;
75005;SDS011;63553;51.814;4.600;2022-10-31T02:19:00;7.23;;;4.73;;
75005;SDS011;63553;51.814;4.600;2022-10-31T02:24:24;8.02;;;5.20;;
75005;SDS011;63553;51.814;4.600;2022-10-31T02:29:56;9.43;;;5.00;;
75005;SDS011;63553;51.814;4.600;2022-10-31T02:35:17;7.55;;;4.80;;
75005;SDS011;63553;51.814;4.600;2022-10-31T02:38:01;7.35;;;4.57;;
75005;SDS011;63553;51.814;4.600;2022-10-31T02:40:39;7.15;;;3.85;;
75005;SDS011;63553;51.814;4.600;2022-10-31T02:43:14;9.07;;;5.13;;
75005;SDS011;63553;51.814;4.600;2022-10-31T02:45:49;7.80;;;4.20;;
75005;SDS011;63553;51.814;4.600;2022-10-31T02:48:32;5.53;;;4.45;;
75005;SDS011;63553;51.814;4.600;2022-10-31T02:51:01;6.30;;;4.90;;
75005;SDS011;63553;51.814;4.600;2022-10-31T02:53:31;5.72;;;4.20;;
75005;SDS011;63553;51.814;4.600;2022-10-31T02:56:08;6.90;;;4.90;;
75005;SDS011;63553;51.814;4.600;2022-10-31T02:58:36;7.47;;;5.63;;
75005;SDS011;63553;51.814;4.600;2022-10-31T03:01:09;8.07;;;5.47;;
75005;SDS011;63553;51.814;4.600;2022-10-31T03:06:53;9.02;;;4.85;;
75005;SDS011;63553;51.814;4.600;2022-10-31T03:09:32;7.18;;;4.85;;
75005;SDS011;63553;51.814;4.600;2022-10-31T03:12:16;11.38;;;4.82;;
75005;SDS011;63553;51.814;4.600;2022-10-31T03:15:13;8.80;;;5.30;;
75005;SDS011;63553;51.814;4.600;2022-10-31T03:17:49;9.10;;;4.63;;
75005;SDS011;63553;51.814;4.600;2022-10-31T03:20:20;9.75;;;5.55;;
75005;SDS011;63553;51.814;4.600;2022-10-31T03:22:51;9.85;;;5.57;;
75005;SDS011;63553;51.814;4.600;2022-10-31T03:25:19;8.70;;;6.07;;
75005;SDS011;63553;51.814;4.600;2022-10-31T03:27:44;9.88;;;6.43;;
75005;SDS011;63553;51.814;4.600;2022-10-31T03:30:11;6.85;;;5.47;;
75005;SDS011;63553;51.814;4.600;2022-10-31T03:32:38;7.72;;;5.75;;
75005;SDS011;63553;51.814;4.600;2022-10-31T03:35:17;7.47;;;5.20;;
75005;SDS011;63553;51.814;4.600;2022-10-31T03:37:45;9.77;;;5.97;;
75005;SDS011;63553;51.814;4.600;2022-10-31T03:40:13;8.70;;;5.38;;
75005;SDS011;63553;51.814;4.600;2022-10-31T03:42:41;9.20;;;5.30;;
75005;SDS011;63553;51.814;4.600;2022-10-31T03:45:13;11.75;;;6.32;;
75005;SDS011;63553;51.814;4.600;2022-10-31T03:47:42;9.90;;;5.38;;
75005;SDS011;63553;51.814;4.600;2022-10-31T03:50:09;8.93;;;6.15;;
75005;SDS011;63553;51.814;4.600;2022-10-31T03:57:54;10.80;;;5.80;;
75005;SDS011;63553;51.814;4.600;2022-10-31T04:00:24;8.52;;;5.82;;
75005;SDS011;63553;51.814;4.600;2022-10-31T04:03:24;14.15;;;6.22;;
75005;SDS011;63553;51.814;4.600;2022-10-31T04:05:45;10.38;;;6.38;;
75005;SDS011;63553;51.814;4.600;2022-10-31T04:08:14;10.50;;;6.43;;
75005;SDS011;63553;51.814;4.600;2022-10-31T04:10:43;7.75;;;5.95;;
75005;SDS011;63553;51.814;4.600;2022-10-31T04:13:13;8.27;;;6.13;;
75005;SDS011;63553;51.814;4.600;2022-10-31T04:15:42;12.25;;;7.50;;
75005;SDS011;63553;51.814;4.600;2022-10-31T04:18:09;9.50;;;5.88;;
75005;SDS011;63553;51.814;4.600;2022-10-31T04:20:36;10.13;;;6.97;;
75005;SDS011;63553;51.814;4.600;2022-10-31T04:23:03;12.93;;;6.78;;
75005;SDS011;63553;51.814;4.600;2022-10-31T04:25:29;9.23;;;5.95;;
75005;SDS011;63553;51.814;4.600;2022-10-31T04:27:55;12.40;;;7.00;;
75005;SDS011;63553;51.814;4.600;2022-10-31T04:30:20;12.33;;;6.47;;
75005;SDS011;63553;51.814;4.600;2022-10-31T04:32:46;10.13;;;6.35;;
75005;SDS011;63553;51.814;4.600;2022-10-31T04:35:11;11.13;;;7.40;;
75005;SDS011;63553;51.814;4.600;2022-10-31T04:37:36;12.02;;;7.22;;
75005;SDS011;63553;51.814;4.600;2022-10-31T04:40:02;8.90;;;6.33;;
75005;SDS011;63553;51.814;4.600;2022-10-31T04:42:29;9.88;;;6.50;;
75005;SDS011;63553;51.814;4.600;2022-10-31T04:44:55;11.82;;;7.15;;
75005;SDS011;63553;51.814;4.600;2022-10-31T04:47:20;11.87;;;7.97;;
75005;SDS011;63553;51.814;4.600;2022-10-31T04:49:45;12.30;;;6.73;;
75005;SDS011;63553;51.814;4.600;2022-10-31T04:52:11;10.85;;;7.43;;
75005;SDS011;63553;51.814;4.600;2022-10-31T04:54:36;9.97;;;6.53;;
75005;SDS011;63553;51.814;4.600;2022-10-31T04:57:01;11.03;;;7.30;;
75005;SDS011;63553;51.814;4.600;2022-10-31T04:59:27;12.65;;;7.95;;
75005;SDS011;63553;51.814;4.600;2022-10-31T05:01:52;14.63;;;7.47;;
75005;SDS011;63553;51.814;4.600;2022-10-31T05:04:17;15.75;;;8.75;;
75005;SDS011;63553;51.814;4.600;2022-10-31T05:06:43;13.33;;;7.77;;
75005;SDS011;63553;51.814;4.600;2022-10-31T05:09:08;16.73;;;8.43;;
75005;SDS011;63553;51.814;4.600;2022-10-31T05:11:33;10.27;;;7.50;;
75005;SDS011;63553;51.814;4.600;2022-10-31T05:13:59;13.40;;;8.87;;
75005;SDS011;63553;51.814;4.600;2022-10-31T05:16:24;12.80;;;7.63;;
75005;SDS011;63553;51.814;4.600;2022-10-31T05:18:49;12.13;;;7.80;;
75005;SDS011;63553;51.814;4.600;2022-10-31T05:21:14;13.70;;;8.63;;
75005;SDS011;63553;51.814;4.600;2022-10-31T05:23:40;11.40;;;8.03;;
75005;SDS011;63553;51.814;4.600;2022-10-31T05:26:05;15.00;;;8.37;;
75005;SDS011;63553;51.814;4.600;2022-10-31T05:28:30;15.10;;;9.10;;
75005;SDS011;63553;51.814;4.600;2022-10-31T05:30:56;12.20;;;7.30;;
75005;SDS011;63553;51.814;4.600;2022-10-31T05:33:21;13.17;;;8.43;;
75005;SDS011;63553;51.814;4.600;2022-10-31T05:35:46;13.83;;;8.53;;
75005;SDS011;63553;51.814;4.600;2022-10-31T05:38:12;13.30;;;8.18;;
75005;SDS011;63553;51.814;4.600;2022-10-31T05:40:37;15.37;;;8.37;;
75005;SDS011;63553;51.814;4.600;2022-10-31T05:43:03;16.27;;;9.50;;
75005;SDS011;63553;51.814;4.600;2022-10-31T05:45:28;12.53;;;8.03;;
75005;SDS011;63553;51.814;4.600;2022-10-31T05:47:54;14.60;;;8.23;;
75005;SDS011;63553;51.814;4.600;2022-10-31T05:50:24;14.90;;;7.90;;
75005;SDS011;63553;51.814;4.600;2022-10-31T05:52:57;18.00;;;10.35;;
75005;SDS011;63553;51.814;4.600;2022-10-31T05:55:23;14.23;;;9.00;;
75005;SDS011;63553;51.814;4.600;2022-10-31T05:57:50;13.63;;;8.73;;
75005;SDS011;63553;51.814;4.600;2022-10-31T06:00:16;12.77;;;8.45;;
75005;SDS011;63553;51.814;4.600;2022-10-31T06:02:41;14.37;;;7.90;;
75005;SDS011;63553;51.814;4.600;2022-10-31T06:05:07;15.65;;;9.50;;
75005;SDS011;63553;51.814;4.600;2022-10-31T06:07:35;19.98;;;10.18;;
75005;SDS011;63553;51.814;4.600;2022-10-31T06:10:01;17.23;;;9.82;;
75005;SDS011;63553;51.814;4.600;2022-10-31T06:12:29;14.52;;;8.55;;
75005;SDS011;63553;51.814;4.600;2022-10-31T06:14:54;14.70;;;8.10;;
75005;SDS011;63553;51.814;4.600;2022-10-31T06:17:20;18.00;;;10.00;;
75005;SDS011;63553;51.814;4.600;2022-10-31T06:19:45;14.48;;;8.88;;
75005;SDS011;63553;51.814;4.600;2022-10-31T06:22:10;15.87;;;9.57;;
75005;SDS011;63553;51.814;4.600;2022-10-31T06:24:37;19.58;;;11.40;;
75005;SDS011;63553;51.814;4.600;2022-10-31T06:27:03;15.43;;;9.52;;
75005;SDS011;63553;51.814;4.600;2022-10-31T06:29:28;16.92;;;9.43;;
75005;SDS011;63553;51.814;4.600;2022-10-31T06:31:53;17.70;;;10.87;;
75005;SDS011;63553;51.814;4.600;2022-10-31T06:34:19;18.20;;;9.80;;
75005;SDS011;63553;51.814;4.600;2022-10-31T06:36:45;18.70;;;10.00;;
75005;SDS011;63553;51.814;4.600;2022-10-31T06:39:11;14.88;;;8.85;;
75005;SDS011;63553;51.814;4.600;2022-10-31T06:41:36;14.87;;;9.13;;
75005;SDS011;63553;51.814;4.600;2022-10-31T06:44:02;16.87;;;10.83;;
75005;SDS011;63553;51.814;4.600;2022-10-31T06:46:27;20.48;;;11.90;;
75005;SDS011;63553;51.814;4.600;2022-10-31T06:48:53;21.53;;;11.97;;
75005;SDS011;63553;51.814;4.600;2022-10-31T06:51:18;27.37;;;12.77;;
75005;SDS011;63553;51.814;4.600;2022-10-31T06:53:43;20.43;;;10.27;;
75005;SDS011;63553;51.814;4.600;2022-10-31T06:56:09;23.40;;;12.27;;
75005;SDS011;63553;51.814;4.600;2022-10-31T06:58:34;24.17;;;12.13;;
75005;SDS011;63553;51.814;4.600;2022-10-31T07:01:00;18.60;;;11.27;;
75005;SDS011;63553;51.814;4.600;2022-10-31T07:03:25;19.63;;;11.25;;
75005;SDS011;63553;51.814;4.600;2022-10-31T07:05:51;24.17;;;12.60;;
75005;SDS011;63553;51.814;4.600;2022-10-31T07:08:16;22.27;;;11.93;;
75005;SDS011;63553;51.814;4.600;2022-10-31T07:10:42;23.88;;;13.23;;
75005;SDS011;63553;51.814;4.600;2022-10-31T07:13:10;23.60;;;12.68;;
75005;SDS011;63553;51.814;4.600;2022-10-31T07:15:37;25.13;;;13.73;;
75005;SDS011;63553;51.814;4.600;2022-10-31T07:18:06;26.10;;;13.38;;
75005;SDS011;63553;51.814;4.600;2022-10-31T07:20:32;25.45;;;13.57;;
75005;SDS011;63553;51.814;4.600;2022-10-31T07:22:58;28.25;;;12.82;;
75005;SDS011;63553;51.814;4.600;2022-10-31T07:25:24;25.48;;;13.23;;
75005;SDS011;63553;51.814;4.600;2022-10-31T07:27:49;22.90;;;12.43;;
75005;SDS011;63553;51.814;4.600;2022-10-31T07:30:15;22.00;;;12.45;;
75005;SDS011;63553;51.814;4.600;2022-10-31T07:32:43;25.70;;;13.43;;
75005;SDS011;63553;51.814;4.600;2022-10-31T07:35:14;21.70;;;11.93;;
75005;SDS011;63553;51.814;4.600;2022-10-31T07:37:41;22.50;;;12.80;;
75005;SDS011;63553;51.814;4.600;2022-10-31T07:40:06;28.80;;;13.87;;
75005;SDS011;63553;51.814;4.600;2022-10-31T07:42:36;27.35;;;12.93;;
75005;SDS011;63553;51.814;4.600;2022-10-31T07:45:02;23.58;;;13.32;;
75005;SDS011;63553;51.814;4.600;2022-10-31T07:47:29;24.30;;;13.20;;
75005;SDS011;63553;51.814;4.600;2022-10-31T07:49:54;21.47;;;13.00;;
75005;SDS011;63553;51.814;4.600;2022-10-31T07:52:19;22.13;;;11.97;;
75005;SDS011;63553;51.814;4.600;2022-10-31T07:54:44;21.03;;;11.83;;
75005;SDS011;63553;51.814;4.600;2022-10-31T07:57:10;22.60;;;11.73;;
75005;SDS011;63553;51.814;4.600;2022-10-31T07:59:35;25.83;;;12.33;;
75005;SDS011;63553;51.814;4.600;2022-10-31T08:02:00;22.00;;;11.80;;
75005;SDS011;63553;51.814;4.600;2022-10-31T08:04:26;29.23;;;12.57;;
75005;SDS011;63553;51.814;4.600;2022-10-31T08:06:51;18.77;;;11.47;;
75005;SDS011;63553;51.814;4.600;2022-10-31T08:09:16;17.17;;;10.63;;
75005;SDS011;63553;51.814;4.600;2022-10-31T08:11:41;20.23;;;11.53;;
75005;SDS011;63553;51.814;4.600;2022-10-31T08:14:07;22.43;;;11.63;;
75005;SDS011;63553;51.814;4.600;2022-10-31T08:16:32;18.57;;;11.10;;
75005;SDS011;63553;51.814;4.600;2022-10-31T08:18:57;20.67;;;11.10;;
75005;SDS011;63553;51.814;4.600;2022-10-31T08:21:23;20.30;;;11.10;;
75005;SDS011;63553;51.814;4.600;2022-10-31T08:23:48;17.23;;;10.83;;
75005;SDS011;63553;51.814;4.600;2022-10-31T08:26:13;19.57;;;11.20;;
75005;SDS011;63553;51.814;4.600;2022-10-31T08:28:39;20.63;;;11.83;;
75005;SDS011;63553;51.814;4.600;2022-10-31T08:31:04;22.07;;;11.40;;
75005;SDS011;63553;51.814;4.600;2022-10-31T08:33:30;19.83;;;10.85;;
75005;SDS011;63553;51.814;4.600;2022-10-31T08:35:59;23.42;;;12.07;;
75005;SDS011;63553;51.814;4.600;2022-10-31T08:38:24;16.17;;;10.70;;
75005;SDS011;63553;51.814;4.600;2022-10-31T08:40:50;18.35;;;10.85;;
75005;SDS011;63553;51.814;4.600;2022-10-31T08:43:16;21.23;;;10.37;;
75005;SDS011;63553;51.814;4.600;2022-10-31T08:45:42;16.17;;;10.35;;
75005;SDS011;63553;51.814;4.600;2022-10-31T08:48:10;18.17;;;10.38;;
75005;SDS011;63553;51.814;4.600;2022-10-31T08:50:36;16.80;;;10.02;;
75005;SDS011;63553;51.814;4.600;2022-10-31T08:55:37;16.38;;;10.63;;
75005;SDS011;63553;51.814;4.600;2022-10-31T08:58:04;17.10;;;10.27;;
75005;SDS011;63553;51.814;4.600;2022-10-31T09:00:32;17.17;;;10.10;;
75005;SDS011;63553;51.814;4.600;2022-10-31T09:02:59;17.52;;;10.45;;
75005;SDS011;63553;51.814;4.600;2022-10-31T09:05:27;19.58;;;10.93;;
75005;SDS011;63553;51.814;4.600;2022-10-31T09:07:56;18.40;;;10.43;;
75005;SDS011;63553;51.814;4.600;2022-10-31T09:10:22;18.65;;;10.68;;
75005;SDS011;63553;51.814;4.600;2022-10-31T09:12:53;17.98;;;11.15;;
75005;SDS011;63553;51.814;4.600;2022-10-31T09:15:22;16.25;;;10.07;;
75005;SDS011;63553;51.814;4.600;2022-10-31T09:17:48;22.30;;;11.77;;
75005;SDS011;63553;51.814;4.600;2022-10-31T09:20:13;17.55;;;11.07;;
75005;SDS011;63553;51.814;4.600;2022-10-31T09:22:39;21.03;;;11.33;;
75005;SDS011;63553;51.814;4.600;2022-10-31T09:25:04;17.47;;;10.63;;
75005;SDS011;63553;51.814;4.600;2022-10-31T09:27:29;19.88;;;10.75;;
75005;SDS011;63553;51.814;4.600;2022-10-31T09:29:55;18.40;;;11.37;;
75005;SDS011;63553;51.814;4.600;2022-10-31T09:32:20;21.23;;;11.03;;
75005;SDS011;63553;51.814;4.600;2022-10-31T09:34:45;22.27;;;11.50;;
75005;SDS011;63553;51.814;4.600;2022-10-31T09:37:11;18.83;;;11.17;;
75005;SDS011;63553;51.814;4.600;2022-10-31T09:39:36;22.73;;;11.63;;
75005;SDS011;63553;51.814;4.600;2022-10-31T09:50:28;17.38;;;10.50;;
75005;SDS011;63553;51.814;4.600;2022-10-31T09:53:16;29.65;;;12.85;;
75005;SDS011;63553;51.814;4.600;2022-10-31T09:55:44;18.98;;;10.85;;
75005;SDS011;63553;51.814;4.600;2022-10-31T09:58:16;22.98;;;11.25;;
75005;SDS011;63553;51.814;4.600;2022-10-31T10:00:48;19.80;;;9.98;;
75005;SDS011;63553;51.814;4.600;2022-10-31T10:03:33;17.47;;;11.00;;
75005;SDS011;63553;51.814;4.600;2022-10-31T10:08:35;28.38;;;11.73;;
75005;SDS011;63553;51.814;4.600;2022-10-31T10:31:07;14.82;;;8.68;;
75005;SDS011;63553;51.814;4.600;2022-10-31T10:33:04;14.73;;;8.90;;
75005;SDS011;63553;51.814;4.600;2022-10-31T10:35:42;14.98;;;8.63;;
75005;SDS011;63553;51.814;4.600;2022-10-31T10:40:52;16.48;;;9.77;;
75005;SDS011;63553;51.814;4.600;2022-10-31T10:45:46;17.40;;;9.85;;
75005;SDS011;63553;51.814;4.600;2022-10-31T10:51:23;16.00;;;9.35;;
75005;SDS011;63553;51.814;4.600;2022-10-31T10:54:20;17.45;;;10.45;;
75005;SDS011;63553;51.814;4.600;2022-10-31T10:59:28;18.67;;;10.50;;
75005;SDS011;63553;51.814;4.600;2022-10-31T11:01:55;21.08;;;10.57;;
75005;SDS011;63553;51.814;4.600;2022-10-31T11:04:33;17.42;;;11.10;;
75005;SDS011;63553;51.814;4.600;2022-10-31T11:09:32;22.27;;;11.20;;
75005;SDS011;63553;51.814;4.600;2022-10-31T11:11:58;20.25;;;10.77;;
75005;SDS011;63553;51.814;4.600;2022-10-31T11:14:30;20.50;;;11.75;;
75005;SDS011;63553;51.814;4.600;2022-10-31T11:17:09;22.75;;;12.25;;
75005;SDS011;63553;51.814;4.600;2022-10-31T11:19:42;20.08;;;11.27;;
75005;SDS011;63553;51.814;4.600;2022-10-31T11:22:08;18.87;;;11.83;;
75005;SDS011;63553;51.814;4.600;2022-10-31T11:24:41;22.70;;;11.65;;
75005;SDS011;63553;51.814;4.600;2022-10-31T11:27:16;21.38;;;11.68;;
75005;SDS011;63553;51.814;4.600;2022-10-31T11:29:46;20.98;;;12.23;;
75005;SDS011;63553;51.814;4.600;2022-10-31T11:32:21;25.05;;;13.07;;
75005;SDS011;63553;51.814;4.600;2022-10-31T11:34:56;25.10;;;13.93;;
75005;SDS011;63553;51.814;4.600;2022-10-31T11:37:44;26.55;;;13.50;;
75005;SDS011;63553;51.814;4.600;2022-10-31T11:40:14;26.65;;;14.38;;
75005;SDS011;63553;51.814;4.600;2022-10-31T11:42:41;26.30;;;13.82;;
75005;SDS011;63553;51.814;4.600;2022-10-31T11:47:40;24.15;;;13.75;;
75005;SDS011;63553;51.814;4.600;2022-10-31T11:50:09;26.65;;;14.98;;
75005;SDS011;63553;51.814;4.600;2022-10-31T11:52:37;25.92;;;14.10;;
75005;SDS011;63553;51.814;4.600;2022-10-31T11:57:43;30.00;;;14.45;;
75005;SDS011;63553;51.814;4.600;2022-10-31T12:02:49;27.85;;;14.55;;
75005;SDS011;63553;51.814;4.600;2022-10-31T12:05:19;28.77;;;14.70;;
75005;SDS011;63553;51.814;4.600;2022-10-31T12:07:50;30.75;;;14.60;;
75005;SDS011;63553;51.814;4.600;2022-10-31T12:10:16;28.08;;;14.25;;
75005;SDS011;63553;51.814;4.600;2022-10-31T12:15:49;30.13;;;15.13;;
75005;SDS011;63553;51.814;4.600;2022-10-31T12:21:34;29.13;;;15.15;;
75005;SDS011;63553;51.814;4.600;2022-10-31T12:29:55;30.15;;;15.10;;
75005;SDS011;63553;51.814;4.600;2022-10-31T12:41:24;29.85;;;13.98;;
75005;SDS011;63553;51.814;4.600;2022-10-31T12:44:03;30.23;;;15.65;;
75005;SDS011;63553;51.814;4.600;2022-10-31T12:57:32;30.05;;;16.00;;
75005;SDS011;63553;51.814;4.600;2022-10-31T13:00:14;32.80;;;15.75;;
75005;SDS011;63553;51.814;4.600;2022-10-31T13:02:52;31.05;;;15.68;;
75005;SDS011;63553;51.814;4.600;2022-10-31T13:05:40;29.30;;;15.00;;
75005;SDS011;63553;51.814;4.600;2022-10-31T13:08:16;30.15;;;15.10;;
75005;SDS011;63553;51.814;4.600;2022-10-31T13:13:41;25.33;;;13.93;;
75005;SDS011;63553;51.814;4.600;2022-10-31T13:16:22;30.30;;;15.73;;
75005;SDS011;63553;51.814;4.600;2022-10-31T13:19:01;29.77;;;16.00;;
75005;SDS011;63553;51.814;4.600;2022-10-31T13:21:34;32.80;;;15.13;;
75005;SDS011;63553;51.814;4.600;2022-10-31T13:24:04;30.90;;;15.73;;
75005;SDS011;63553;51.814;4.600;2022-10-31T13:26:42;28.73;;;15.07;;
75005;SDS011;63553;51.814;4.600;2022-10-31T13:29:14;32.97;;;15.48;;
75005;SDS011;63553;51.814;4.600;2022-10-31T13:31:42;34.88;;;15.65;;
75005;SDS011;63553;51.814;4.600;2022-10-31T13:34:28;29.15;;;14.57;;
75005;SDS011;63553;51.814;4.600;2022-10-31T13:45:21;34.72;;;15.55;;
75005;SDS011;63553;51.814;4.600;2022-10-31T13:50:40;28.88;;;15.43;;
75005;SDS011;63553;51.814;4.600;2022-10-31T13:55:49;33.20;;;16.17;;
75005;SDS011;63553;51.814;4.600;2022-10-31T13:58:27;25.40;;;15.40;;
75005;SDS011;63553;51.814;4.600;2022-10-31T14:03:56;26.55;;;15.90;;
75005;SDS011;63553;51.814;4.600;2022-10-31T14:10:19;28.65;;;15.13;;
75005;SDS011;63553;51.814;4.600;2022-10-31T14:12:39;32.50;;;16.35;;
75005;SDS011;63553;51.814;4.600;2022-10-31T14:15:24;28.98;;;15.30;;
75005;SDS011;63553;51.814;4.600;2022-10-31T14:18:01;34.65;;;16.42;;
75005;SDS011;63553;51.814;4.600;2022-10-31T14:20:44;31.60;;;17.23;;
75005;SDS011;63553;51.814;4.600;2022-10-31T14:25:53;29.75;;;16.20;;
75005;SDS011;63553;51.814;4.600;2022-10-31T14:30:57;34.83;;;19.65;;
75005;SDS011;63553;51.814;4.600;2022-10-31T14:33:25;42.08;;;19.73;;
75005;SDS011;63553;51.814;4.600;2022-10-31T14:38:30;37.85;;;21.15;;
75005;SDS011;63553;51.814;4.600;2022-10-31T14:41:36;35.90;;;19.52;;
75005;SDS011;63553;51.814;4.600;2022-10-31T14:44:22;35.47;;;17.52;;
75005;SDS011;63553;51.814;4.600;2022-10-31T14:53:11;35.42;;;18.55;;
75005;SDS011;63553;51.814;4.600;2022-10-31T14:55:59;33.78;;;17.40;;
75005;SDS011;63553;51.814;4.600;2022-10-31T14:58:32;31.90;;;18.20;;
75005;SDS011;63553;51.814;4.600;2022-10-31T15:01:01;35.38;;;18.73;;
75005;SDS011;63553;51.814;4.600;2022-10-31T15:03:32;31.85;;;18.45;;
75005;SDS011;63553;51.814;4.600;2022-10-31T15:06:20;35.92;;;19.30;;
75005;SDS011;63553;51.814;4.600;2022-10-31T15:08:51;32.38;;;18.20;;
75005;SDS011;63553;51.814;4.600;2022-10-31T15:11:19;35.85;;;17.80;;
75005;SDS011;63553;51.814;4.600;2022-10-31T15:13:51;34.33;;;18.70;;
75005;SDS011;63553;51.814;4.600;2022-10-31T15:16:21;36.13;;;19.27;;
75005;SDS011;63553;51.814;4.600;2022-10-31T15:18:53;33.15;;;17.75;;
75005;SDS011;63553;51.814;4.600;2022-10-31T15:21:19;39.95;;;19.15;;
75005;SDS011;63553;51.814;4.600;2022-10-31T15:23:46;33.22;;;17.55;;
75005;SDS011;63553;51.814;4.600;2022-10-31T15:26:19;34.53;;;18.42;;
75005;SDS011;63553;51.814;4.600;2022-10-31T15:28:56;37.00;;;18.42;;
75005;SDS011;63553;51.814;4.600;2022-10-31T15:31:24;40.50;;;18.80;;
75005;SDS011;63553;51.814;4.600;2022-10-31T15:33:49;32.47;;;18.30;;
75005;SDS011;63553;51.814;4.600;2022-10-31T15:36:20;50.60;;;21.65;;
75005;SDS011;63553;51.814;4.600;2022-10-31T15:38:48;37.05;;;19.50;;
75005;SDS011;63553;51.814;4.600;2022-10-31T15:44:21;34.80;;;18.05;;
75005;SDS011;63553;51.814;4.600;2022-10-31T15:47:32;33.03;;;17.15;;
75005;SDS011;63553;51.814;4.600;2022-10-31T15:49:54;32.60;;;16.95;;
75005;SDS011;63553;51.814;4.600;2022-10-31T15:52:35;32.22;;;16.38;;
75005;SDS011;63553;51.814;4.600;2022-10-31T15:55:14;27.48;;;15.65;;
75005;SDS011;63553;51.814;4.600;2022-10-31T15:57:43;30.52;;;16.30;;
75005;SDS011;63553;51.814;4.600;2022-10-31T16:05:51;28.10;;;14.57;;
75005;SDS011;63553;51.814;4.600;2022-10-31T16:13:29;24.10;;;14.57;;
75005;SDS011;63553;51.814;4.600;2022-10-31T16:16:14;26.08;;;13.75;;
75005;SDS011;63553;51.814;4.600;2022-10-31T16:18:41;28.67;;;14.77;;
75005;SDS011;63553;51.814;4.600;2022-10-31T16:21:07;25.88;;;13.35;;
75005;SDS011;63553;51.814;4.600;2022-10-31T16:23:33;24.27;;;12.85;;
75005;SDS011;63553;51.814;4.600;2022-10-31T16:26:04;26.30;;;12.32;;
75005;SDS011;63553;51.814;4.600;2022-10-31T16:28:31;27.55;;;12.57;;
75005;SDS011;63553;51.814;4.600;2022-10-31T16:30:57;23.98;;;12.85;;
75005;SDS011;63553;51.814;4.600;2022-10-31T16:33:32;20.63;;;11.80;;
75005;SDS011;63553;51.814;4.600;2022-10-31T16:38:52;21.38;;;11.90;;
75005;SDS011;63553;51.814;4.600;2022-10-31T16:41:18;20.92;;;12.02;;
75005;SDS011;63553;51.814;4.600;2022-10-31T16:43:44;29.48;;;12.20;;
75005;SDS011;63553;51.814;4.600;2022-10-31T16:46:12;20.07;;;10.90;;
75005;SDS011;63553;51.814;4.600;2022-10-31T16:48:39;22.30;;;11.10;;
75005;SDS011;63553;51.814;4.600;2022-10-31T16:51:06;19.23;;;11.33;;
75005;SDS011;63553;51.814;4.600;2022-10-31T16:53:32;20.20;;;11.32;;
75005;SDS011;63553;51.814;4.600;2022-10-31T16:55:58;21.03;;;12.03;;
75005;SDS011;63553;51.814;4.600;2022-10-31T16:58:28;19.58;;;10.77;;
75005;SDS011;63553;51.814;4.600;2022-10-31T17:00:57;19.33;;;10.43;;
75005;SDS011;63553;51.814;4.600;2022-10-31T17:03:24;17.83;;;10.95;;
75005;SDS011;63553;51.814;4.600;2022-10-31T17:05:50;23.58;;;10.77;;
75005;SDS011;63553;51.814;4.600;2022-10-31T17:08:15;20.65;;;10.68;;
75005;SDS011;63553;51.814;4.600;2022-10-31T17:10:41;22.50;;;10.75;;
75005;SDS011;63553;51.814;4.600;2022-10-31T17:13:10;17.45;;;10.20;;
75005;SDS011;63553;51.814;4.600;2022-10-31T17:15:44;18.95;;;10.48;;
75005;SDS011;63553;51.814;4.600;2022-10-31T17:18:12;21.42;;;10.70;;
75005;SDS011;63553;51.814;4.600;2022-10-31T17:20:39;17.98;;;10.93;;
75005;SDS011;63553;51.814;4.600;2022-10-31T17:23:06;20.45;;;10.27;;